Forside
METAR-TAF:

METAR-TAF

Lufthavne :

Bujumbura, Burundi

Breddekreds: 03-19S, længdekreds: 029-19E, højde: 782 m

METAR: fraværende

Tid: 04:48 (02:48 UTC)

Vejrudsigter

Denne rapport blev lavet for 3 timer og 48 minutter siden, kl. 23:00 UTC
Foreløbig gælder fra 16 på 00 UTC til 17 på 06 UTC
Vind kt fra nord
Sigt 10 km eller mere
ingen skyer under 1500m og ingen cumulonimbus
ændring
fra 16 på 02 UTC til 16 på 04 UTC
Vind 3 kt fra nord
Sigt: 5000 m
tåge/dis
Fra UTC
Vind 10 kt fra syd med vindstød på up til 20 kt
Sigt: 7000 m
Nogle få skyer i en højde af 3000 ft
ændring
fra 16 på 17 UTC til 16 på 19 UTC
Vind kt fra nord
Sigt 10 km eller mere
ingen skyer under 1500m og ingen cumulonimbus
ændring
fra 17 på 02 UTC til 17 på 04 UTC
Vind 3 kt fra nord
Sigt: 5000 m
Nogle få skyer i en højde af 3000 ft
tåge/dis

TAF: HBBA 152300Z 1600/1706 00000KT CAVOK BECMG 1602/1604 36003KT 5000 HZ NSC FM 160700 18010G20KT 7000 FEW030 BECMG 1617/1619 00000KT CAVOK BECMG 1702/1704 36003KT 5000 HZ FEW030

Vejrobservationer og prognoser fra mere end 4000 lufthavne (METAR og TAF).

De gule og røde prikker repræsenterer de meteorologiske stationer.

Flyt musen over at se navnet på stationen.

Så klik over at se vejr observationer og prognoser.

At skifte det kort: Klik på de grønne knapper med et sort kors for at zoome ind; på den grønne knap med en bindestreg for at zoome ud; eller på de grønne pile for tilstødende kort.


METAR-TAF: